sensor_id;sensor_type;location;lat;lon;timestamp;temperature;humidity
5304;DHT22;2674;49.722;10.892;2022-07-29T00:00:58;20.80;66.30
5304;DHT22;2674;49.722;10.892;2022-07-29T00:03:24;20.80;66.40
5304;DHT22;2674;49.722;10.892;2022-07-29T00:05:50;20.80;66.40
5304;DHT22;2674;49.722;10.892;2022-07-29T00:08:19;20.80;66.50
5304;DHT22;2674;49.722;10.892;2022-07-29T00:10:45;20.80;66.40
5304;DHT22;2674;49.722;10.892;2022-07-29T00:13:11;20.80;66.30
5304;DHT22;2674;49.722;10.892;2022-07-29T00:15:37;20.90;66.30
5304;DHT22;2674;49.722;10.892;2022-07-29T00:18:03;20.90;66.10
5304;DHT22;2674;49.722;10.892;2022-07-29T00:20:29;20.90;66.20
5304;DHT22;2674;49.722;10.892;2022-07-29T00:22:55;20.90;66.20
5304;DHT22;2674;49.722;10.892;2022-07-29T00:25:21;20.90;66.20
5304;DHT22;2674;49.722;10.892;2022-07-29T00:27:46;20.90;66.00
5304;DHT22;2674;49.722;10.892;2022-07-29T00:30:12;20.90;66.00
5304;DHT22;2674;49.722;10.892;2022-07-29T00:32:39;20.80;66.00
5304;DHT22;2674;49.722;10.892;2022-07-29T00:35:05;20.90;65.90
5304;DHT22;2674;49.722;10.892;2022-07-29T00:37:50;20.80;66.10
5304;DHT22;2674;49.722;10.892;2022-07-29T00:40:16;20.80;66.50
5304;DHT22;2674;49.722;10.892;2022-07-29T00:42:44;20.80;66.10
5304;DHT22;2674;49.722;10.892;2022-07-29T00:45:10;20.80;66.50
5304;DHT22;2674;49.722;10.892;2022-07-29T00:47:36;20.80;66.20
5304;DHT22;2674;49.722;10.892;2022-07-29T00:50:04;20.80;66.10
5304;DHT22;2674;49.722;10.892;2022-07-29T00:52:31;20.80;66.10
5304;DHT22;2674;49.722;10.892;2022-07-29T00:54:57;20.80;66.10
5304;DHT22;2674;49.722;10.892;2022-07-29T00:57:23;20.80;66.10
5304;DHT22;2674;49.722;10.892;2022-07-29T00:59:49;20.80;66.30
5304;DHT22;2674;49.722;10.892;2022-07-29T01:02:15;20.80;66.50
5304;DHT22;2674;49.722;10.892;2022-07-29T01:04:41;20.80;66.10
5304;DHT22;2674;49.722;10.892;2022-07-29T01:07:07;20.80;66.50
5304;DHT22;2674;49.722;10.892;2022-07-29T01:09:34;20.70;66.10
5304;DHT22;2674;49.722;10.892;2022-07-29T01:12:01;20.70;66.00
5304;DHT22;2674;49.722;10.892;2022-07-29T01:14:28;20.70;66.50
5304;DHT22;2674;49.722;10.892;2022-07-29T01:17:21;20.70;66.50
5304;DHT22;2674;49.722;10.892;2022-07-29T01:30:29;20.70;66.30
5304;DHT22;2674;49.722;10.892;2022-07-29T01:33:03;20.70;66.70
5304;DHT22;2674;49.722;10.892;2022-07-29T01:35:42;20.60;67.20
5304;DHT22;2674;49.722;10.892;2022-07-29T01:38:21;20.60;68.20
5304;DHT22;2674;49.722;10.892;2022-07-29T01:40:54;20.50;67.70
5304;DHT22;2674;49.722;10.892;2022-07-29T01:43:37;20.50;68.50
5304;DHT22;2674;49.722;10.892;2022-07-29T01:46:11;20.50;69.40
5304;DHT22;2674;49.722;10.892;2022-07-29T01:48:54;20.50;70.30
5304;DHT22;2674;49.722;10.892;2022-07-29T01:51:47;20.40;71.30
5304;DHT22;2674;49.722;10.892;2022-07-29T01:54:26;20.40;71.10
5304;DHT22;2674;49.722;10.892;2022-07-29T01:56:57;20.40;70.90
5304;DHT22;2674;49.722;10.892;2022-07-29T01:59:25;20.30;71.20
5304;DHT22;2674;49.722;10.892;2022-07-29T02:01:53;20.30;71.70
5304;DHT22;2674;49.722;10.892;2022-07-29T02:04:20;20.30;73.30
5304;DHT22;2674;49.722;10.892;2022-07-29T02:06:50;20.20;72.80
5304;DHT22;2674;49.722;10.892;2022-07-29T02:09:17;20.20;72.60
5304;DHT22;2674;49.722;10.892;2022-07-29T02:11:49;20.10;74.60
5304;DHT22;2674;49.722;10.892;2022-07-29T02:14:18;20.10;74.00
5304;DHT22;2674;49.722;10.892;2022-07-29T02:16:47;20.00;73.60
5304;DHT22;2674;49.722;10.892;2022-07-29T02:19:17;19.90;72.80
5304;DHT22;2674;49.722;10.892;2022-07-29T02:21:45;19.90;73.20
5304;DHT22;2674;49.722;10.892;2022-07-29T02:24:12;19.80;72.80
5304;DHT22;2674;49.722;10.892;2022-07-29T02:26:40;19.80;73.10
5304;DHT22;2674;49.722;10.892;2022-07-29T02:29:08;19.80;73.10
5304;DHT22;2674;49.722;10.892;2022-07-29T02:31:36;19.70;73.70
5304;DHT22;2674;49.722;10.892;2022-07-29T02:34:06;19.70;74.30
5304;DHT22;2674;49.722;10.892;2022-07-29T02:36:34;19.60;74.70
5304;DHT22;2674;49.722;10.892;2022-07-29T02:39:02;19.60;74.90
5304;DHT22;2674;49.722;10.892;2022-07-29T02:41:50;19.50;74.90
5304;DHT22;2674;49.722;10.892;2022-07-29T02:44:24;19.50;75.00
5304;DHT22;2674;49.722;10.892;2022-07-29T02:49:55;19.40;75.30
5304;DHT22;2674;49.722;10.892;2022-07-29T02:54:58;19.30;74.60
5304;DHT22;2674;49.722;10.892;2022-07-29T02:57:41;19.20;74.80
5304;DHT22;2674;49.722;10.892;2022-07-29T03:00:09;19.20;75.60
5304;DHT22;2674;49.722;10.892;2022-07-29T03:02:44;19.00;77.10
5304;DHT22;2674;49.722;10.892;2022-07-29T03:05:14;18.90;78.10
5304;DHT22;2674;49.722;10.892;2022-07-29T03:07:45;18.90;77.50
5304;DHT22;2674;49.722;10.892;2022-07-29T03:10:11;19.00;77.00
5304;DHT22;2674;49.722;10.892;2022-07-29T03:12:38;18.90;76.80
5304;DHT22;2674;49.722;10.892;2022-07-29T03:15:05;18.90;77.00
5304;DHT22;2674;49.722;10.892;2022-07-29T03:17:32;18.80;77.10
5304;DHT22;2674;49.722;10.892;2022-07-29T03:19:58;18.80;78.50
5304;DHT22;2674;49.722;10.892;2022-07-29T03:22:25;18.70;79.60
5304;DHT22;2674;49.722;10.892;2022-07-29T03:24:51;18.70;81.30
5304;DHT22;2674;49.722;10.892;2022-07-29T03:27:17;18.60;81.00
5304;DHT22;2674;49.722;10.892;2022-07-29T03:29:43;18.50;80.80
5304;DHT22;2674;49.722;10.892;2022-07-29T03:32:09;18.50;80.60
5304;DHT22;2674;49.722;10.892;2022-07-29T03:34:36;18.40;80.10
5304;DHT22;2674;49.722;10.892;2022-07-29T03:37:03;18.30;81.80
5304;DHT22;2674;49.722;10.892;2022-07-29T03:39:33;18.30;83.50
5304;DHT22;2674;49.722;10.892;2022-07-29T03:42:00;18.20;83.20
5304;DHT22;2674;49.722;10.892;2022-07-29T03:44:28;18.20;83.80
5304;DHT22;2674;49.722;10.892;2022-07-29T03:46:55;18.10;85.90
5304;DHT22;2674;49.722;10.892;2022-07-29T03:49:24;18.10;86.10
5304;DHT22;2674;49.722;10.892;2022-07-29T03:51:51;18.00;85.90
5304;DHT22;2674;49.722;10.892;2022-07-29T03:54:17;18.00;85.00
5304;DHT22;2674;49.722;10.892;2022-07-29T03:56:45;18.00;84.10
5304;DHT22;2674;49.722;10.892;2022-07-29T03:59:15;18.10;84.60
5304;DHT22;2674;49.722;10.892;2022-07-29T04:01:41;18.10;85.50
5304;DHT22;2674;49.722;10.892;2022-07-29T04:04:08;18.00;85.90
5304;DHT22;2674;49.722;10.892;2022-07-29T04:06:39;18.00;86.30
5304;DHT22;2674;49.722;10.892;2022-07-29T04:09:05;18.00;86.40
5304;DHT22;2674;49.722;10.892;2022-07-29T04:11:31;17.90;87.10
5304;DHT22;2674;49.722;10.892;2022-07-29T04:13:57;17.90;89.20
5304;DHT22;2674;49.722;10.892;2022-07-29T04:16:23;17.90;89.10
5304;DHT22;2674;49.722;10.892;2022-07-29T04:18:48;18.00;86.90
5304;DHT22;2674;49.722;10.892;2022-07-29T04:21:14;18.00;86.00
5304;DHT22;2674;49.722;10.892;2022-07-29T04:23:40;18.10;85.10
5304;DHT22;2674;49.722;10.892;2022-07-29T04:26:06;18.20;85.40
5304;DHT22;2674;49.722;10.892;2022-07-29T04:28:35;18.20;86.80
5304;DHT22;2674;49.722;10.892;2022-07-29T04:31:01;18.20;89.50
5304;DHT22;2674;49.722;10.892;2022-07-29T04:33:27;18.10;90.50
5304;DHT22;2674;49.722;10.892;2022-07-29T04:35:53;18.10;91.40
5304;DHT22;2674;49.722;10.892;2022-07-29T04:38:19;18.10;92.30
5304;DHT22;2674;49.722;10.892;2022-07-29T04:40:44;18.10;93.20
5304;DHT22;2674;49.722;10.892;2022-07-29T04:43:10;18.10;92.90
5304;DHT22;2674;49.722;10.892;2022-07-29T04:45:36;18.20;93.30
5304;DHT22;2674;49.722;10.892;2022-07-29T04:48:02;18.20;93.40
5304;DHT22;2674;49.722;10.892;2022-07-29T04:50:28;18.20;94.50
5304;DHT22;2674;49.722;10.892;2022-07-29T04:52:54;18.30;95.00
5304;DHT22;2674;49.722;10.892;2022-07-29T04:55:20;18.30;95.20
5304;DHT22;2674;49.722;10.892;2022-07-29T04:57:46;18.40;95.70
5304;DHT22;2674;49.722;10.892;2022-07-29T05:00:12;18.50;96.40
5304;DHT22;2674;49.722;10.892;2022-07-29T05:02:38;18.60;97.50
5304;DHT22;2674;49.722;10.892;2022-07-29T05:05:04;18.70;96.80
5304;DHT22;2674;49.722;10.892;2022-07-29T05:07:30;18.90;96.50
5304;DHT22;2674;49.722;10.892;2022-07-29T05:09:56;18.90;96.20
5304;DHT22;2674;49.722;10.892;2022-07-29T05:12:23;18.90;96.80
5304;DHT22;2674;49.722;10.892;2022-07-29T05:14:49;19.00;97.50
5304;DHT22;2674;49.722;10.892;2022-07-29T05:17:15;19.10;97.60
5304;DHT22;2674;49.722;10.892;2022-07-29T05:19:41;19.20;96.90
5304;DHT22;2674;49.722;10.892;2022-07-29T05:22:07;19.30;96.50
5304;DHT22;2674;49.722;10.892;2022-07-29T05:24:33;19.40;96.10
5304;DHT22;2674;49.722;10.892;2022-07-29T05:26:59;19.50;95.60
5304;DHT22;2674;49.722;10.892;2022-07-29T05:29:24;19.60;95.40
5304;DHT22;2674;49.722;10.892;2022-07-29T05:31:50;19.60;95.10
5304;DHT22;2674;49.722;10.892;2022-07-29T05:34:19;19.70;94.90
5304;DHT22;2674;49.722;10.892;2022-07-29T05:36:45;19.70;94.70
5304;DHT22;2674;49.722;10.892;2022-07-29T05:39:11;19.90;94.30
5304;DHT22;2674;49.722;10.892;2022-07-29T05:41:38;20.10;94.50
5304;DHT22;2674;49.722;10.892;2022-07-29T05:44:04;20.30;93.50
5304;DHT22;2674;49.722;10.892;2022-07-29T05:46:30;20.40;93.70
5304;DHT22;2674;49.722;10.892;2022-07-29T05:49:01;20.60;93.50
5304;DHT22;2674;49.722;10.892;2022-07-29T05:51:28;20.90;92.60
5304;DHT22;2674;49.722;10.892;2022-07-29T06:02:30;21.70;89.10
5304;DHT22;2674;49.722;10.892;2022-07-29T06:04:56;22.00;89.10
5304;DHT22;2674;49.722;10.892;2022-07-29T06:07:22;22.20;87.10
5304;DHT22;2674;49.722;10.892;2022-07-29T06:09:48;22.50;85.90
5304;DHT22;2674;49.722;10.892;2022-07-29T06:12:14;22.60;83.60
5304;DHT22;2674;49.722;10.892;2022-07-29T06:14:39;22.80;81.90
5304;DHT22;2674;49.722;10.892;2022-07-29T06:17:05;22.80;78.60
5304;DHT22;2674;49.722;10.892;2022-07-29T06:19:34;22.90;78.60
5304;DHT22;2674;49.722;10.892;2022-07-29T06:22:00;22.90;76.90
5304;DHT22;2674;49.722;10.892;2022-07-29T06:24:26;22.90;76.30
5304;DHT22;2674;49.722;10.892;2022-07-29T06:26:52;22.90;75.50
5304;DHT22;2674;49.722;10.892;2022-07-29T06:29:18;23.00;77.20
5304;DHT22;2674;49.722;10.892;2022-07-29T06:31:44;23.10;75.70
5304;DHT22;2674;49.722;10.892;2022-07-29T06:34:10;23.10;75.90
5304;DHT22;2674;49.722;10.892;2022-07-29T06:36:37;23.30;77.40
5304;DHT22;2674;49.722;10.892;2022-07-29T06:39:07;23.40;77.00
5304;DHT22;2674;49.722;10.892;2022-07-29T06:41:33;23.50;75.40
5304;DHT22;2674;49.722;10.892;2022-07-29T06:43:59;23.60;75.70
5304;DHT22;2674;49.722;10.892;2022-07-29T06:46:25;23.60;74.60
5304;DHT22;2674;49.722;10.892;2022-07-29T06:48:51;23.60;73.80
5304;DHT22;2674;49.722;10.892;2022-07-29T06:51:17;23.50;75.50
5304;DHT22;2674;49.722;10.892;2022-07-29T06:53:43;23.60;77.50
5304;DHT22;2674;49.722;10.892;2022-07-29T06:56:09;23.70;75.00
5304;DHT22;2674;49.722;10.892;2022-07-29T06:58:35;23.80;74.30
5304;DHT22;2674;49.722;10.892;2022-07-29T07:01:04;23.80;74.10
5304;DHT22;2674;49.722;10.892;2022-07-29T07:03:32;23.90;74.20
5304;DHT22;2674;49.722;10.892;2022-07-29T07:05:58;23.90;74.30
5304;DHT22;2674;49.722;10.892;2022-07-29T07:08:24;24.00;74.10
5304;DHT22;2674;49.722;10.892;2022-07-29T07:10:51;24.10;74.80
5304;DHT22;2674;49.722;10.892;2022-07-29T07:13:18;24.20;74.70
5304;DHT22;2674;49.722;10.892;2022-07-29T07:15:45;24.20;73.60
5304;DHT22;2674;49.722;10.892;2022-07-29T07:18:13;24.40;73.30
5304;DHT22;2674;49.722;10.892;2022-07-29T07:20:39;24.50;73.80
5304;DHT22;2674;49.722;10.892;2022-07-29T07:23:05;24.60;73.70
5304;DHT22;2674;49.722;10.892;2022-07-29T07:25:31;24.70;73.20
5304;DHT22;2674;49.722;10.892;2022-07-29T07:27:57;24.80;73.30
5304;DHT22;2674;49.722;10.892;2022-07-29T07:30:23;25.00;72.00
5304;DHT22;2674;49.722;10.892;2022-07-29T07:32:49;25.00;71.80
5304;DHT22;2674;49.722;10.892;2022-07-29T07:35:15;25.10;71.60
5304;DHT22;2674;49.722;10.892;2022-07-29T07:37:41;25.20;71.90
5304;DHT22;2674;49.722;10.892;2022-07-29T07:40:09;25.30;70.70
5304;DHT22;2674;49.722;10.892;2022-07-29T07:42:35;25.50;71.90
5304;DHT22;2674;49.722;10.892;2022-07-29T07:45:01;25.60;70.10
5304;DHT22;2674;49.722;10.892;2022-07-29T07:47:27;25.70;69.70
5304;DHT22;2674;49.722;10.892;2022-07-29T07:49:53;25.90;70.00
5304;DHT22;2674;49.722;10.892;2022-07-29T07:52:20;25.80;70.60
5304;DHT22;2674;49.722;10.892;2022-07-29T07:54:47;25.80;68.80
5304;DHT22;2674;49.722;10.892;2022-07-29T07:57:13;25.80;69.90
5304;DHT22;2674;49.722;10.892;2022-07-29T07:59:39;25.70;69.70
5304;DHT22;2674;49.722;10.892;2022-07-29T08:02:06;25.80;69.60
5304;DHT22;2674;49.722;10.892;2022-07-29T08:04:32;25.80;69.70
5304;DHT22;2674;49.722;10.892;2022-07-29T08:06:58;25.70;69.30
5304;DHT22;2674;49.722;10.892;2022-07-29T08:09:25;25.70;69.40
5304;DHT22;2674;49.722;10.892;2022-07-29T08:11:51;25.60;69.40
5304;DHT22;2674;49.722;10.892;2022-07-29T08:14:18;25.60;69.30
5304;DHT22;2674;49.722;10.892;2022-07-29T08:16:44;25.80;69.30
5304;DHT22;2674;49.722;10.892;2022-07-29T08:19:10;26.00;68.90
5304;DHT22;2674;49.722;10.892;2022-07-29T08:21:36;26.30;68.30
5304;DHT22;2674;49.722;10.892;2022-07-29T08:24:02;26.50;67.70
5304;DHT22;2674;49.722;10.892;2022-07-29T08:26:47;26.70;67.10
5304;DHT22;2674;49.722;10.892;2022-07-29T08:29:13;26.90;67.40
5304;DHT22;2674;49.722;10.892;2022-07-29T08:31:41;26.90;66.30
5304;DHT22;2674;49.722;10.892;2022-07-29T08:34:06;26.90;67.50
5304;DHT22;2674;49.722;10.892;2022-07-29T08:36:33;26.80;67.20
5304;DHT22;2674;49.722;10.892;2022-07-29T08:38:59;26.80;64.70
5304;DHT22;2674;49.722;10.892;2022-07-29T08:41:26;26.80;67.00
5304;DHT22;2674;49.722;10.892;2022-07-29T08:43:52;26.90;65.80
5304;DHT22;2674;49.722;10.892;2022-07-29T08:46:19;27.00;65.20
5304;DHT22;2674;49.722;10.892;2022-07-29T08:48:46;27.10;64.80
5304;DHT22;2674;49.722;10.892;2022-07-29T08:51:19;27.30;64.90
5304;DHT22;2674;49.722;10.892;2022-07-29T08:53:46;27.50;65.10
5304;DHT22;2674;49.722;10.892;2022-07-29T08:56:16;27.80;64.50
5304;DHT22;2674;49.722;10.892;2022-07-29T08:58:44;27.90;64.70
5304;DHT22;2674;49.722;10.892;2022-07-29T09:01:12;27.90;63.60
5304;DHT22;2674;49.722;10.892;2022-07-29T09:03:40;27.90;63.40
5304;DHT22;2674;49.722;10.892;2022-07-29T09:06:06;28.00;63.80
5304;DHT22;2674;49.722;10.892;2022-07-29T09:08:33;27.80;61.70
5304;DHT22;2674;49.722;10.892;2022-07-29T09:11:01;27.60;63.00
5304;DHT22;2674;49.722;10.892;2022-07-29T09:13:27;27.50;64.20
5304;DHT22;2674;49.722;10.892;2022-07-29T09:15:53;27.40;64.00
5304;DHT22;2674;49.722;10.892;2022-07-29T09:18:36;27.40;64.90
5304;DHT22;2674;49.722;10.892;2022-07-29T09:21:04;27.40;66.00
5304;DHT22;2674;49.722;10.892;2022-07-29T09:24:06;27.40;64.30
5304;DHT22;2674;49.722;10.892;2022-07-29T09:26:34;27.40;64.20
5304;DHT22;2674;49.722;10.892;2022-07-29T09:29:11;27.40;63.50
5304;DHT22;2674;49.722;10.892;2022-07-29T09:31:40;27.50;63.50
5304;DHT22;2674;49.722;10.892;2022-07-29T09:34:07;27.60;64.30
5304;DHT22;2674;49.722;10.892;2022-07-29T09:36:41;27.50;64.70
5304;DHT22;2674;49.722;10.892;2022-07-29T09:39:07;27.60;63.70
5304;DHT22;2674;49.722;10.892;2022-07-29T09:41:52;27.70;63.20
5304;DHT22;2674;49.722;10.892;2022-07-29T09:44:19;27.70;63.50
5304;DHT22;2674;49.722;10.892;2022-07-29T09:47:03;27.90;64.30
5304;DHT22;2674;49.722;10.892;2022-07-29T09:49:36;28.00;62.60
5304;DHT22;2674;49.722;10.892;2022-07-29T09:52:15;28.30;61.90
5304;DHT22;2674;49.722;10.892;2022-07-29T09:54:41;28.30;61.60
5304;DHT22;2674;49.722;10.892;2022-07-29T09:57:09;28.30;60.90
5304;DHT22;2674;49.722;10.892;2022-07-29T10:02:30;28.30;63.00
5304;DHT22;2674;49.722;10.892;2022-07-29T10:05:23;28.50;61.20
5304;DHT22;2674;49.722;10.892;2022-07-29T10:07:52;28.60;61.70
5304;DHT22;2674;49.722;10.892;2022-07-29T10:12:54;28.90;61.80
5304;DHT22;2674;49.722;10.892;2022-07-29T10:15:22;29.20;60.90
5304;DHT22;2674;49.722;10.892;2022-07-29T10:17:50;29.40;59.80
5304;DHT22;2674;49.722;10.892;2022-07-29T10:20:16;29.60;59.80
5304;DHT22;2674;49.722;10.892;2022-07-29T10:22:45;28.90;59.00
5304;DHT22;2674;49.722;10.892;2022-07-29T10:25:14;28.80;60.80
5304;DHT22;2674;49.722;10.892;2022-07-29T10:27:41;29.00;62.00
5304;DHT22;2674;49.722;10.892;2022-07-29T10:30:07;29.20;61.50
5304;DHT22;2674;49.722;10.892;2022-07-29T10:32:39;29.20;61.10
5304;DHT22;2674;49.722;10.892;2022-07-29T10:43:42;29.10;60.90
5304;DHT22;2674;49.722;10.892;2022-07-29T10:46:10;28.90;60.60
5304;DHT22;2674;49.722;10.892;2022-07-29T10:49:06;28.90;62.00
5304;DHT22;2674;49.722;10.892;2022-07-29T10:52:04;29.00;61.60
5304;DHT22;2674;49.722;10.892;2022-07-29T10:57:22;29.80;57.60
5304;DHT22;2674;49.722;10.892;2022-07-29T11:02:41;30.40;57.80
5304;DHT22;2674;49.722;10.892;2022-07-29T11:07:38;30.80;56.90
5304;DHT22;2674;49.722;10.892;2022-07-29T11:15:09;31.00;55.50
5304;DHT22;2674;49.722;10.892;2022-07-29T11:20:39;31.00;56.00
5304;DHT22;2674;49.722;10.892;2022-07-29T11:23:27;31.20;54.30
5304;DHT22;2674;49.722;10.892;2022-07-29T11:28:54;31.20;53.00
5304;DHT22;2674;49.722;10.892;2022-07-29T11:31:36;31.10;53.90
5304;DHT22;2674;49.722;10.892;2022-07-29T11:39:39;31.20;53.60
5304;DHT22;2674;49.722;10.892;2022-07-29T11:45:13;31.00;52.80
5304;DHT22;2674;49.722;10.892;2022-07-29T11:47:46;30.90;51.70
5304;DHT22;2674;49.722;10.892;2022-07-29T11:50:17;30.80;52.50
5304;DHT22;2674;49.722;10.892;2022-07-29T11:52:46;31.00;52.00
5304;DHT22;2674;49.722;10.892;2022-07-29T11:55:18;30.90;51.20
5304;DHT22;2674;49.722;10.892;2022-07-29T12:00:40;30.80;51.40
5304;DHT22;2674;49.722;10.892;2022-07-29T12:03:09;30.90;52.20
5304;DHT22;2674;49.722;10.892;2022-07-29T12:05:44;31.30;51.60
5304;DHT22;2674;49.722;10.892;2022-07-29T12:08:19;31.30;50.60
5304;DHT22;2674;49.722;10.892;2022-07-29T12:10:46;31.60;51.40
5304;DHT22;2674;49.722;10.892;2022-07-29T12:13:14;31.80;50.20
5304;DHT22;2674;49.722;10.892;2022-07-29T12:15:41;32.20;49.30
5304;DHT22;2674;49.722;10.892;2022-07-29T12:18:14;32.40;48.70
5304;DHT22;2674;49.722;10.892;2022-07-29T12:20:40;32.80;48.00
5304;DHT22;2674;49.722;10.892;2022-07-29T12:23:08;32.60;47.70
5304;DHT22;2674;49.722;10.892;2022-07-29T12:25:35;32.60;46.60
5304;DHT22;2674;49.722;10.892;2022-07-29T12:28:11;32.60;47.70
5304;DHT22;2674;49.722;10.892;2022-07-29T12:30:48;32.40;47.70
5304;DHT22;2674;49.722;10.892;2022-07-29T12:35:47;32.20;50.40
5304;DHT22;2674;49.722;10.892;2022-07-29T12:38:15;31.90;51.20
5304;DHT22;2674;49.722;10.892;2022-07-29T12:40:42;31.70;52.40
5304;DHT22;2674;49.722;10.892;2022-07-29T12:43:16;31.50;53.20
5304;DHT22;2674;49.722;10.892;2022-07-29T12:45:45;31.30;53.50
5304;DHT22;2674;49.722;10.892;2022-07-29T12:48:12;30.90;55.30
5304;DHT22;2674;49.722;10.892;2022-07-29T12:50:57;30.70;55.30
5304;DHT22;2674;49.722;10.892;2022-07-29T12:53:24;30.40;55.90
5304;DHT22;2674;49.722;10.892;2022-07-29T12:55:51;30.70;56.90
5304;DHT22;2674;49.722;10.892;2022-07-29T12:58:27;30.60;56.80
5304;DHT22;2674;49.722;10.892;2022-07-29T13:03:58;30.40;57.00
5304;DHT22;2674;49.722;10.892;2022-07-29T13:06:43;30.40;57.50
5304;DHT22;2674;49.722;10.892;2022-07-29T13:14:08;30.10;57.40
5304;DHT22;2674;49.722;10.892;2022-07-29T13:16:36;30.30;57.30
5304;DHT22;2674;49.722;10.892;2022-07-29T13:19:11;30.30;57.00
5304;DHT22;2674;49.722;10.892;2022-07-29T13:21:38;30.40;57.20
5304;DHT22;2674;49.722;10.892;2022-07-29T13:24:07;30.20;56.60
5304;DHT22;2674;49.722;10.892;2022-07-29T13:26:34;30.40;57.50
5304;DHT22;2674;49.722;10.892;2022-07-29T13:29:00;30.40;56.80
5304;DHT22;2674;49.722;10.892;2022-07-29T13:31:26;30.20;57.20
5304;DHT22;2674;49.722;10.892;2022-07-29T13:33:52;30.20;57.60
5304;DHT22;2674;49.722;10.892;2022-07-29T13:36:18;30.40;57.10
5304;DHT22;2674;49.722;10.892;2022-07-29T13:38:44;30.60;56.80
5304;DHT22;2674;49.722;10.892;2022-07-29T13:41:10;30.80;55.20
5304;DHT22;2674;49.722;10.892;2022-07-29T13:43:36;30.90;55.80
5304;DHT22;2674;49.722;10.892;2022-07-29T13:46:02;31.00;56.40
5304;DHT22;2674;49.722;10.892;2022-07-29T13:48:28;30.90;56.10
5304;DHT22;2674;49.722;10.892;2022-07-29T13:50:54;30.60;55.70
5304;DHT22;2674;49.722;10.892;2022-07-29T13:53:19;30.60;57.10
5304;DHT22;2674;49.722;10.892;2022-07-29T13:55:45;30.70;56.60
5304;DHT22;2674;49.722;10.892;2022-07-29T13:58:11;30.70;57.30
5304;DHT22;2674;49.722;10.892;2022-07-29T14:00:37;30.60;56.50
5304;DHT22;2674;49.722;10.892;2022-07-29T14:03:03;30.40;57.30
5304;DHT22;2674;49.722;10.892;2022-07-29T14:05:29;30.20;57.30
5304;DHT22;2674;49.722;10.892;2022-07-29T14:07:55;29.80;57.60
5304;DHT22;2674;49.722;10.892;2022-07-29T14:10:21;29.70;58.40
5304;DHT22;2674;49.722;10.892;2022-07-29T14:12:47;29.60;58.90
5304;DHT22;2674;49.722;10.892;2022-07-29T14:15:13;29.50;59.30
5304;DHT22;2674;49.722;10.892;2022-07-29T14:17:38;29.40;59.30
5304;DHT22;2674;49.722;10.892;2022-07-29T14:20:05;29.40;60.40
5304;DHT22;2674;49.722;10.892;2022-07-29T14:22:31;29.20;62.30
5304;DHT22;2674;49.722;10.892;2022-07-29T14:24:57;28.80;64.50
5304;DHT22;2674;49.722;10.892;2022-07-29T14:27:22;28.50;65.70
5304;DHT22;2674;49.722;10.892;2022-07-29T14:29:48;27.90;73.80
5304;DHT22;2674;49.722;10.892;2022-07-29T14:32:14;27.10;81.60
5304;DHT22;2674;49.722;10.892;2022-07-29T14:34:40;26.60;87.90
5304;DHT22;2674;49.722;10.892;2022-07-29T14:37:06;26.00;92.20
5304;DHT22;2674;49.722;10.892;2022-07-29T14:39:34;25.10;94.60
5304;DHT22;2674;49.722;10.892;2022-07-29T14:42:01;24.60;99.90
5304;DHT22;2674;49.722;10.892;2022-07-29T14:44:27;23.90;99.90
5304;DHT22;2674;49.722;10.892;2022-07-29T14:46:58;23.30;99.90
5304;DHT22;2674;49.722;10.892;2022-07-29T14:49:25;22.50;99.90
5304;DHT22;2674;49.722;10.892;2022-07-29T14:51:51;21.70;99.90
5304;DHT22;2674;49.722;10.892;2022-07-29T14:54:17;21.10;99.90
5304;DHT22;2674;49.722;10.892;2022-07-29T14:56:43;20.60;99.90
5304;DHT22;2674;49.722;10.892;2022-07-29T14:59:09;20.20;99.90
5304;DHT22;2674;49.722;10.892;2022-07-29T15:01:35;19.90;99.90
5304;DHT22;2674;49.722;10.892;2022-07-29T15:04:01;19.70;99.90
5304;DHT22;2674;49.722;10.892;2022-07-29T15:06:26;19.60;99.90
5304;DHT22;2674;49.722;10.892;2022-07-29T15:08:52;19.40;99.90
5304;DHT22;2674;49.722;10.892;2022-07-29T15:11:19;19.20;99.90
5304;DHT22;2674;49.722;10.892;2022-07-29T15:13:45;19.30;99.90
5304;DHT22;2674;49.722;10.892;2022-07-29T15:16:11;19.30;99.90
5304;DHT22;2674;49.722;10.892;2022-07-29T15:18:39;19.10;99.90
5304;DHT22;2674;49.722;10.892;2022-07-29T15:21:05;19.10;99.90
5304;DHT22;2674;49.722;10.892;2022-07-29T15:23:34;19.00;99.90
5304;DHT22;2674;49.722;10.892;2022-07-29T15:26:04;19.00;99.90
5304;DHT22;2674;49.722;10.892;2022-07-29T15:28:30;19.00;99.90
5304;DHT22;2674;49.722;10.892;2022-07-29T15:30:56;19.00;99.90
5304;DHT22;2674;49.722;10.892;2022-07-29T15:33:22;19.10;99.90
5304;DHT22;2674;49.722;10.892;2022-07-29T15:35:48;19.00;99.90
5304;DHT22;2674;49.722;10.892;2022-07-29T15:38:14;19.00;99.90
5304;DHT22;2674;49.722;10.892;2022-07-29T15:40:41;19.00;99.90
5304;DHT22;2674;49.722;10.892;2022-07-29T15:43:08;19.10;99.90
5304;DHT22;2674;49.722;10.892;2022-07-29T15:45:38;19.20;99.90
5304;DHT22;2674;49.722;10.892;2022-07-29T15:48:06;19.30;99.90
5304;DHT22;2674;49.722;10.892;2022-07-29T15:50:33;19.30;99.90
5304;DHT22;2674;49.722;10.892;2022-07-29T15:52:59;19.30;99.90
5304;DHT22;2674;49.722;10.892;2022-07-29T15:55:25;19.30;99.90
5304;DHT22;2674;49.722;10.892;2022-07-29T15:57:51;19.20;99.90
5304;DHT22;2674;49.722;10.892;2022-07-29T16:00:17;18.90;99.90
5304;DHT22;2674;49.722;10.892;2022-07-29T16:02:44;18.80;99.90
5304;DHT22;2674;49.722;10.892;2022-07-29T16:05:10;18.80;99.90
5304;DHT22;2674;49.722;10.892;2022-07-29T16:07:36;18.80;99.90
5304;DHT22;2674;49.722;10.892;2022-07-29T16:10:03;18.50;99.90
5304;DHT22;2674;49.722;10.892;2022-07-29T16:12:29;18.70;99.90
5304;DHT22;2674;49.722;10.892;2022-07-29T16:14:54;18.60;99.90
5304;DHT22;2674;49.722;10.892;2022-07-29T16:17:20;18.60;99.90
5304;DHT22;2674;49.722;10.892;2022-07-29T16:19:46;18.60;99.90
5304;DHT22;2674;49.722;10.892;2022-07-29T16:22:13;18.60;99.90
5304;DHT22;2674;49.722;10.892;2022-07-29T16:24:39;18.60;99.90
5304;DHT22;2674;49.722;10.892;2022-07-29T16:27:05;18.60;99.90
5304;DHT22;2674;49.722;10.892;2022-07-29T16:29:31;18.70;99.90
5304;DHT22;2674;49.722;10.892;2022-07-29T16:31:57;18.70;99.90
5304;DHT22;2674;49.722;10.892;2022-07-29T16:34:23;18.60;99.90
5304;DHT22;2674;49.722;10.892;2022-07-29T16:36:48;18.60;99.90
5304;DHT22;2674;49.722;10.892;2022-07-29T16:39:14;18.60;99.90
5304;DHT22;2674;49.722;10.892;2022-07-29T16:41:40;18.50;99.90
5304;DHT22;2674;49.722;10.892;2022-07-29T16:44:06;18.50;99.90
5304;DHT22;2674;49.722;10.892;2022-07-29T16:46:32;18.40;99.90
5304;DHT22;2674;49.722;10.892;2022-07-29T16:49:02;18.30;99.90
5304;DHT22;2674;49.722;10.892;2022-07-29T16:51:29;18.30;99.90
5304;DHT22;2674;49.722;10.892;2022-07-29T16:53:54;18.30;99.90
5304;DHT22;2674;49.722;10.892;2022-07-29T16:56:20;18.40;99.90
5304;DHT22;2674;49.722;10.892;2022-07-29T16:58:46;18.40;99.90
5304;DHT22;2674;49.722;10.892;2022-07-29T17:01:12;18.40;99.90
5304;DHT22;2674;49.722;10.892;2022-07-29T17:03:38;18.30;99.90
5304;DHT22;2674;49.722;10.892;2022-07-29T17:06:22;18.30;99.90
5304;DHT22;2674;49.722;10.892;2022-07-29T17:08:48;18.30;99.90
5304;DHT22;2674;49.722;10.892;2022-07-29T17:11:14;18.30;99.90